< < Back
Terminal Aerodrome Forecast


Current Version              Previous Versions:   1  2  3  4  5  6  7  8  9  

Terminal Aerodrome Forecast

182
FTUS42 KFFC 231700
TAFPDK
TAF
KPDK 231739Z 2318/2418 32010KT P6SM SKC
     FM232300 32004KT P6SM SKC
     FM240700 VRB03KT P6SM SKC
     FM241400 12006KT P6SM SKC=

Latest METAR

015
SAUS70 KWBC 240800 RRC
MTRPDK
METAR KPDK 240753Z AUTO 00000KT 10SM CLR 07/04 A2996 RMK AO2 SLP142
T00670044


USA.gov is the U.S. government's official web portal to all federal, state and local government web resources and services.